Elizabeth, New Jersey
Current Conditions -  °F | °C
As of 6:51 AM on Friday 31 Oct 2014 (Local Time) from KEWR Reporting Station
Broken Clouds Broken Clouds  
Wind Chill:   Ceiling: 5000
Heat Index:   Visibility: 10mi
Dew Point:   Wind: 7mph
Humidity: 71%   Direction: 20°NNE
Pressure: 30.02"   Gusts: NA
Location:  40.66°N, 74.21°W
Report Text: KEWR 311051Z 02006KT 10SM BKN050 07/02 A3002 RMK AO2 SLP165 T00720022
Loading
Personal Weather Stations






























Interactive Weather Map
Tropical Storm Tracking
New forecast layout! Learn more

10-Day Weather Forecast

Advertisements
Track Severe Weather on mobile